Time;durP1;ratioP1;P1;durP2;ratioP2;P2;SDS_P1;SDS_P2;PMS_P1;PMS_P2;Temp;Humidity;BMP_temperature;BMP_pressure;BME280_temperature;BME280_humidity;BME280_pressure;Samples;Min_cycle;Max_cycle;Signal;HPM_P1;HPM_P2
2023/02/03 00:00:09;;;;;;;;;;;;;;;2.42;100.00;99478.19;5028823;28;20423;-57
2023/02/03 00:02:38;;;;;;;;;;;;;;;2.38;100.00;99478.94;5026634;28;20257;-56
2023/02/03 00:05:03;;;;;;;;;;;;;;;2.37;100.00;99483.13;5032059;28;20351;-57
2023/02/03 00:07:29;;;;;;;;;;;;;;;2.37;100.00;99473.03;5062295;28;19925;-56
2023/02/03 00:09:56;;;;;;;;;;;;;;;2.35;100.00;99482.22;5028983;28;20367;-57
2023/02/03 00:12:21;;;;;;;;;;;;;;;2.36;100.00;99473.81;5030964;28;20007;-57
2023/02/03 00:14:47;;;;;;;;;;;;;;;2.41;100.00;99474.81;5028327;28;19946;-63
2023/02/03 00:17:14;;;;;;;;;;;;;;;2.39;100.00;99486.53;5027536;28;20259;-58
2023/02/03 00:19:39;;;;;;;;;;;;;;;2.42;100.00;99480.72;5026212;28;20070;-58
2023/02/03 00:22:05;;;;;;;;;;;;;;;2.42;100.00;99488.31;5028782;28;20241;-56
2023/02/03 00:24:30;;;;;;;;;;;;;;;2.43;100.00;99488.34;5029369;28;19935;-56
2023/02/03 00:26:56;;;;;;;;;;;;;;;2.47;100.00;99491.81;5030438;28;20359;-57
2023/02/03 00:29:24;;;;;;;;;;;;;;;2.48;100.00;99496.06;5028793;28;19917;-57
2023/02/03 00:31:50;;;;;;;;;;;;;;;2.55;100.00;99486.13;5028955;28;20246;-58
2023/02/03 00:34:22;;;;;;;;;;;;;;;2.54;100.00;99486.97;5029356;28;19932;-57
2023/02/03 00:36:47;;;;;;;;;;;;;;;2.51;100.00;99494.47;5028993;28;19925;-58
2023/02/03 00:39:16;;;;;;;;;;;;;;;2.49;100.00;99501.19;5029106;28;20475;-58
2023/02/03 00:41:41;;;;;;;;;;;;;;;2.47;100.00;99492.66;5030040;28;20102;-57
2023/02/03 00:44:07;;;;;;;;;;;;;;;2.53;100.00;99485.25;5030204;28;19937;-56
2023/02/03 00:46:35;;;;;;;;;;;;;;;2.57;100.00;99501.38;5029479;28;19925;-56
2023/02/03 00:49:01;;;;;;;;;;;;;;;2.56;100.00;99497.97;5030271;28;19925;-55
2023/02/03 00:51:27;;;;;;;;;;;;;;;2.53;100.00;99499.56;5027771;28;19925;-55
2023/02/03 00:53:53;;;;;;;;;;;;;;;2.52;100.00;99510.50;5028330;28;19946;-59
2023/02/03 00:56:21;;;;;;;;;;;;;;;2.50;100.00;99515.56;5031513;28;20375;-54
2023/02/03 00:58:48;;;;;;;;;;;;;;;2.55;100.00;99505.53;5031638;28;20022;-54
2023/02/03 01:01:14;;;;;;;;;;;;;;;2.51;100.00;99501.19;5045556;28;20955;-55
2023/02/03 01:03:39;;;;;;;;;;;;;;;2.47;100.00;99510.38;5060925;28;20447;-59
2023/02/03 01:06:09;;;;;;;;;;;;;;;2.51;100.00;99501.19;5029885;28;20015;-59
2023/02/03 01:08:35;;;;;;;;;;;;;;;2.47;100.00;99515.44;5030961;28;19925;-54
2023/02/03 01:11:04;;;;;;;;;;;;;;;2.49;100.00;99503.72;5036797;28;20277;-53
2023/02/03 01:13:30;;;;;;;;;;;;;;;2.54;100.00;99496.25;5032013;28;19928;-54
2023/02/03 01:15:55;;;;;;;;;;;;;;;2.52;100.00;99492.78;5029638;28;19929;-57
2023/02/03 01:18:21;;;;;;;;;;;;;;;2.51;100.00;99491.06;5028897;28;20446;-57
2023/02/03 01:20:47;;;;;;;;;;;;;;;2.52;100.00;99485.19;5036742;28;19978;-56
2023/02/03 01:23:13;;;;;;;;;;;;;;;2.53;100.00;99492.84;5026530;28;19928;-56
2023/02/03 01:25:38;;;;;;;;;;;;;;;2.47;100.00;99495.19;5028856;28;20351;-56
2023/02/03 01:28:04;;;;;;;;;;;;;;;2.47;100.00;99494.34;5028985;28;19929;-56
2023/02/03 01:30:30;;;;;;;;;;;;;;;2.42;100.00;99498.44;5029049;28;20299;-55
2023/02/03 01:32:55;;;;;;;;;;;;;;;2.38;100.00;99489.88;5028927;28;20011;-58
2023/02/03 01:35:21;;;;;;;;;;;;;;;2.39;100.00;99489.06;5059596;28;19960;-56
2023/02/03 01:37:46;;;;;;;;;;;;;;;2.38;100.00;99487.34;5028282;28;19924;-55
2023/02/03 01:40:12;;;;;;;;;;;;;;;2.37;100.00;99492.41;5029648;28;20394;-57
2023/02/03 01:42:38;;;;;;;;;;;;;;;2.42;100.00;99491.69;5032586;28;20303;-55
2023/02/03 01:45:03;;;;;;;;;;;;;;;2.39;100.00;99490.75;5033597;28;19925;-56
2023/02/03 01:47:29;;;;;;;;;;;;;;;2.39;100.00;99490.75;5031090;28;20299;-56
2023/02/03 01:49:58;;;;;;;;;;;;;;;2.37;100.00;99487.34;5030108;28;19925;-58
2023/02/03 01:52:24;;;;;;;;;;;;;;;2.38;100.00;99499.19;5032004;28;19956;-61
2023/02/03 01:54:51;;;;;;;;;;;;;;;2.37;100.00;99498.31;5033792;28;19921;-59
2023/02/03 01:57:21;;;;;;;;;;;;;;;2.35;100.00;99499.94;5031383;28;19927;-58
2023/02/03 01:59:48;;;;;;;;;;;;;;;2.50;100.00;99496.97;5050420;28;20260;-57
2023/02/03 02:02:13;;;;;;;;;;;;;;;2.55;100.00;99483.59;5031195;28;19997;-56
2023/02/03 02:04:49;;;;;;;;;;;;;;;2.49;100.00;99485.13;5032498;28;20480;-57
2023/02/03 02:07:15;;;;;;;;;;;;;;;2.58;100.00;99477.78;5027814;28;19959;-57
2023/02/03 02:09:41;;;;;;;;;;;;;;;2.51;100.00;99471.69;5031086;28;20023;-57
2023/02/03 02:12:08;;;;;;;;;;;;;;;2.54;100.00;99465.88;5030364;28;20016;-55
2023/02/03 02:14:33;;;;;;;;;;;;;;;2.56;100.00;99477.72;5064166;28;20452;-58
2023/02/03 02:17:25;;;;;;;;;;;;;;;2.44;100.00;99476.56;5012963;28;19978;-56
2023/02/03 02:19:53;;;;;;;;;;;;;;;2.40;100.00;99462.97;5029098;28;19931;-56
2023/02/03 02:22:31;;;;;;;;;;;;;;;2.35;100.00;99464.50;5029366;28;19935;-55
2023/02/03 02:25:12;;;;;;;;;;;;;;;2.29;100.00;99459.31;5029357;28;20387;-58
2023/02/03 02:27:50;;;;;;;;;;;;;;;2.18;100.00;99455.59;5030166;28;19960;-57
2023/02/03 02:30:34;;;;;;;;;;;;;;;2.16;100.00;99452.19;5031307;28;20314;-59
2023/02/03 02:33:03;;;;;;;;;;;;;;;2.10;100.00;99446.97;5030912;28;19990;-57
2023/02/03 02:35:33;;;;;;;;;;;;;;;2.09;100.00;99450.28;5045067;28;19921;-57
2023/02/03 02:38:02;;;;;;;;;;;;;;;2.04;100.00;99444.25;5032405;28;20424;-59
2023/02/03 02:40:36;;;;;;;;;;;;;;;2.02;100.00;99456.00;5065340;28;19921;-57
2023/02/03 02:43:11;;;;;;;;;;;;;;;2.06;100.00;99451.06;5030077;28;19925;-57
2023/02/03 02:45:59;;;;;;;;;;;;;;;2.02;100.00;99456.88;5040099;28;19983;-55
2023/02/03 02:48:28;;;;;;;;;;;;;;;2.05;100.00;99449.34;5020173;28;20307;-56
2023/02/03 02:50:55;;;;;;;;;;;;;;;2.06;100.00;99455.28;5059514;28;19921;-57
2023/02/03 02:53:23;;;;;;;;;;;;;;;2.05;100.00;99456.09;5032510;28;20248;-56
2023/02/03 02:55:50;;;;;;;;;;;;;;;2.04;100.00;99460.28;5031418;28;19928;-55
2023/02/03 02:58:17;;;;;;;;;;;;;;;1.97;100.00;99455.88;5039055;28;19975;-54
2023/02/03 03:00:43;;;;;;;;;;;;;;;1.88;100.00;99457.28;5034197;28;20247;-53
2023/02/03 03:03:13;;;;;;;;;;;;;;;1.83;100.00;99458.00;5061793;28;19925;-54
2023/02/03 03:05:40;;;;;;;;;;;;;;;1.82;100.00;99448.69;5030062;28;19925;-56
2023/02/03 03:08:08;;;;;;;;;;;;;;;1.80;100.00;99445.28;5037832;28;19932;-55
2023/02/03 03:10:36;;;;;;;;;;;;;;;1.75;100.00;99443.44;5030836;28;19925;-58
2023/02/03 03:13:04;;;;;;;;;;;;;;;1.67;100.00;99439.81;5030323;28;20002;-56
2023/02/03 03:15:31;;;;;;;;;;;;;;;1.75;100.00;99434.19;5026214;28;20364;-58
2023/02/03 03:18:15;;;;;;;;;;;;;;;1.62;100.00;99433.78;5030022;28;19932;-57
2023/02/03 03:20:43;;;;;;;;;;;;;;;1.55;100.00;99421.78;5029108;28;20474;-56
2023/02/03 03:23:18;;;;;;;;;;;;;;;1.49;100.00;99419.94;5031191;28;20004;-55
2023/02/03 03:25:46;;;;;;;;;;;;;;;1.51;100.00;99409.88;5027907;28;20321;-56
2023/02/03 03:28:14;;;;;;;;;;;;;;;1.48;100.00;99410.66;5029090;28;20360;-55
2023/02/03 03:30:40;;;;;;;;;;;;;;;1.47;100.00;99406.41;5028078;28;20430;-56
2023/02/03 03:33:06;;;;;;;;;;;;;;;1.45;100.00;99400.44;5027895;28;19924;-55
2023/02/03 03:35:52;;;;;;;;;;;;;;;1.43;100.00;99393.66;5028293;28;19920;-57
2023/02/03 03:38:23;;;;;;;;;;;;;;;1.42;100.00;99392.78;5030611;28;19931;-55
2023/02/03 03:40:53;;;;;;;;;;;;;;;1.43;100.00;99391.13;5027494;28;19920;-57
2023/02/03 03:43:20;;;;;;;;;;;;;;;1.45;100.00;99381.91;5030520;28;20017;-55
2023/02/03 03:45:54;;;;;;;;;;;;;;;1.38;100.00;99376.69;5030385;28;19927;-56
2023/02/03 03:48:26;;;;;;;;;;;;;;;1.37;100.00;99379.16;5031268;28;20007;-56
2023/02/03 03:50:53;;;;;;;;;;;;;;;1.35;100.00;99369.03;5029550;28;20318;-58
2023/02/03 03:53:21;;;;;;;;;;;;;;;1.33;100.00;99372.31;5060429;28;19921;-57
2023/02/03 03:55:48;;;;;;;;;;;;;;;1.32;100.00;99370.56;5031514;28;20415;-55
2023/02/03 03:58:24;;;;;;;;;;;;;;;1.29;100.00;99367.97;5033647;28;19924;-57
2023/02/03 04:00:52;;;;;;;;;;;;;;;1.29;100.00;99376.41;5035194;28;19921;-55
2023/02/03 04:03:22;;;;;;;;;;;;;;;1.52;100.00;99364.47;5065863;28;19921;-58
2023/02/03 04:05:47;;;;;;;;;;;;;;;1.53;100.00;99381.31;5033022;28;19971;-56
2023/02/03 04:08:13;;;;;;;;;;;;;;;1.45;100.00;99382.75;5046602;28;20201;-56
2023/02/03 04:10:39;;;;;;;;;;;;;;;1.44;100.00;99373.50;5030711;28;19964;-57
2023/02/03 04:13:06;;;;;;;;;;;;;;;1.52;100.00;99382.13;5027571;28;19927;-57
2023/02/03 04:15:31;;;;;;;;;;;;;;;1.59;100.00;99389.06;5026369;28;20216;-57
2023/02/03 04:17:57;;;;;;;;;;;;;;;1.49;100.00;99378.66;5028812;28;19928;-58
2023/02/03 04:20:23;;;;;;;;;;;;;;;1.48;100.00;99362.66;5029977;28;20335;-59
2023/02/03 04:22:48;;;;;;;;;;;;;;;1.60;100.00;99357.94;5030384;28;19920;-57
2023/02/03 04:25:14;;;;;;;;;;;;;;;1.57;100.00;99359.53;5030842;28;20324;-58
2023/02/03 04:27:39;;;;;;;;;;;;;;;1.45;100.00;99354.09;5031632;28;20094;-56
2023/02/03 04:30:05;;;;;;;;;;;;;;;1.57;100.00;99357.84;5032071;28;20332;-57
2023/02/03 04:32:31;;;;;;;;;;;;;;;1.65;100.00;99364.00;5032728;28;19970;-56
2023/02/03 04:34:57;;;;;;;;;;;;;;;1.79;100.00;99357.63;5032343;28;20053;-61
2023/02/03 04:37:25;;;;;;;;;;;;;;;1.49;100.00;99359.28;5028848;28;19982;-60
2023/02/03 04:39:51;;;;;;;;;;;;;;;1.82;100.00;99340.00;5029976;28;19920;-62
2023/02/03 04:42:17;;;;;;;;;;;;;;;1.83;100.00;99339.19;5029736;28;19990;-59
2023/02/03 04:44:43;;;;;;;;;;;;;;;1.54;100.00;99347.66;5030433;28;19929;-60
2023/02/03 04:47:08;;;;;;;;;;;;;;;1.45;100.00;99344.00;5027263;28;19940;-60
2023/02/03 04:49:34;;;;;;;;;;;;;;;1.37;100.00;99333.69;5026076;28;20429;-60
2023/02/03 04:51:59;;;;;;;;;;;;;;;1.21;100.00;99334.06;5032903;28;20560;-60
2023/02/03 04:54:25;;;;;;;;;;;;;;;1.15;100.00;99329.69;5027708;28;20401;-59
2023/02/03 04:56:50;;;;;;;;;;;;;;;1.34;100.00;99334.47;5029687;28;19921;-60
2023/02/03 04:59:16;;;;;;;;;;;;;;;1.56;100.00;99328.34;5030644;28;19921;-59
2023/02/03 05:01:41;;;;;;;;;;;;;;;1.38;100.00;99328.69;5030101;28;20023;-60
2023/02/03 05:04:07;;;;;;;;;;;;;;;1.21;100.00;99316.38;5028344;28;19921;-63
2023/02/03 05:06:32;;;;;;;;;;;;;;;1.14;100.00;99325.47;5028707;28;20384;-60
2023/02/03 05:08:58;;;;;;;;;;;;;;;1.09;100.00;99321.94;5029798;28;19924;-59
2023/02/03 05:11:24;;;;;;;;;;;;;;;0.97;100.00;99318.19;5028003;28;20460;-58
2023/02/03 05:13:49;;;;;;;;;;;;;;;0.93;100.00;99311.34;5026109;28;20411;-60
2023/02/03 05:16:15;;;;;;;;;;;;;;;0.96;100.00;99311.44;5028989;28;20526;-58
2023/02/03 05:18:40;;;;;;;;;;;;;;;0.92;100.00;99307.97;5062587;28;20407;-59
2023/02/03 05:21:06;;;;;;;;;;;;;;;0.91;100.00;99312.16;5028506;28;20298;-60
2023/02/03 05:23:31;;;;;;;;;;;;;;;0.89;100.00;99318.81;5038311;28;20308;-60
2023/02/03 05:25:57;;;;;;;;;;;;;;;0.89;100.00;99302.84;5030001;28;20023;-60
2023/02/03 05:28:22;;;;;;;;;;;;;;;0.95;100.00;99304.66;5028066;28;19987;-57
2023/02/03 05:30:48;;;;;;;;;;;;;;;0.93;100.00;99297.91;5024574;28;19954;-57
2023/02/03 05:33:13;;;;;;;;;;;;;;;1.01;100.00;99290.56;5023036;28;19928;-57
2023/02/03 05:35:38;;;;;;;;;;;;;;;1.08;100.00;99299.16;5031553;28;20034;-58
2023/02/03 05:38:04;;;;;;;;;;;;;;;1.09;100.00;99286.59;5029155;28;20307;-58
2023/02/03 05:43:14;;;;;;;;;;;;;;;1.08;100.00;99299.16;5030766;28;20055;-58
2023/02/03 05:45:39;;;;;;;;;;;;;;;1.07;100.00;99300.84;5029385;28;20360;-56
2023/02/03 05:48:06;;;;;;;;;;;;;;;1.06;100.00;99295.75;5061215;28;20494;-56
2023/02/03 05:50:32;;;;;;;;;;;;;;;1.11;100.00;99291.66;5030402;28;19924;-61
2023/02/03 05:53:05;;;;;;;;;;;;;;;1.12;100.00;99294.25;5028446;28;19965;-58
2023/02/03 05:55:31;;;;;;;;;;;;;;;1.13;100.00;99301.03;5029424;28;19974;-58
2023/02/03 05:57:58;;;;;;;;;;;;;;;1.23;100.00;99287.00;5030494;28;19967;-60
2023/02/03 06:00:24;;;;;;;;;;;;;;;1.45;100.00;99285.91;5030665;28;20419;-58
2023/02/03 06:02:52;;;;;;;;;;;;;;;2.26;100.00;99288.06;5024206;28;19928;-60
2023/02/03 06:05:17;;;;;;;;;;;;;;;2.83;100.00;99279.25;5024932;28;20372;-62
2023/02/03 06:07:42;;;;;;;;;;;;;;;3.28;100.00;99282.75;5025977;28;19955;-60
2023/02/03 06:10:08;;;;;;;;;;;;;;;3.51;100.00;99280.66;5025125;28;20663;-60
2023/02/03 06:12:33;;;;;;;;;;;;;;;3.62;100.00;99274.13;5027626;28;20322;-55
2023/02/03 06:14:59;;;;;;;;;;;;;;;3.66;100.00;99266.59;5026558;28;20451;-56
2023/02/03 06:17:24;;;;;;;;;;;;;;;3.65;100.00;99274.16;5026575;28;20412;-56
2023/02/03 06:19:50;;;;;;;;;;;;;;;3.74;100.00;99265.88;5025503;28;20328;-63
2023/02/03 06:22:15;;;;;;;;;;;;;;;3.87;100.00;99271.19;5025267;28;19932;-54
2023/02/03 06:24:41;;;;;;;;;;;;;;;4.04;100.00;99271.50;5025231;28;19925;-59
2023/02/03 06:27:06;;;;;;;;;;;;;;;4.08;100.00;99263.97;5027968;28;19925;-55
2023/02/03 06:29:31;;;;;;;;;;;;;;;3.95;100.00;99254.44;5030538;28;19986;-53
2023/02/03 06:31:57;;;;;;;;;;;;;;;3.86;100.00;99261.03;5030721;28;20287;-58
2023/02/03 06:34:22;;;;;;;;;;;;;;;3.87;100.00;99250.91;5029025;28;19928;-53
2023/02/03 06:36:48;;;;;;;;;;;;;;;3.86;100.00;99249.19;5031378;28;19982;-54
2023/02/03 06:39:13;;;;;;;;;;;;;;;3.92;100.00;99254.38;5031211;28;19960;-53
2023/02/03 06:41:39;;;;;;;;;;;;;;;3.91;100.00;99234.06;5034503;28;19924;-54
2023/02/03 06:44:04;;;;;;;;;;;;;;;3.91;100.00;99241.66;5031311;28;19937;-55
2023/02/03 06:46:31;;;;;;;;;;;;;;;3.96;100.00;99240.94;5029327;28;20389;-53
2023/02/03 06:48:56;;;;;;;;;;;;;;;4.15;100.00;99229.41;5029103;28;19964;-57
2023/02/03 06:51:23;;;;;;;;;;;;;;;4.19;100.00;99218.47;5027744;28;19925;-54
2023/02/03 06:53:49;;;;;;;;;;;;;;;4.13;100.00;99203.16;5029339;28;20011;-55
2023/02/03 06:56:14;;;;;;;;;;;;;;;4.11;100.00;99204.81;5029568;28;19974;-54
2023/02/03 06:58:40;;;;;;;;;;;;;;;4.29;100.00;99202.53;5029605;28;20439;-56
2023/02/03 07:01:05;;;;;;;;;;;;;;;4.38;100.00;99192.53;5030613;28;19925;-55
2023/02/03 07:03:31;;;;;;;;;;;;;;;4.46;100.00;99201.09;5029564;28;19921;-57
2023/02/03 07:05:56;;;;;;;;;;;;;;;4.43;100.00;99190.06;5032064;28;19925;-56
2023/02/03 07:08:22;;;;;;;;;;;;;;;4.47;100.00;99202.81;5062896;28;19952;-55
2023/02/03 07:10:51;;;;;;;;;;;;;;;4.54;100.00;99206.31;5030312;28;20403;-55
2023/02/03 07:13:17;;;;;;;;;;;;;;;4.66;100.00;99214.09;5031694;28;19944;-57
2023/02/03 07:15:42;;;;;;;;;;;;;;;4.73;100.00;99199.78;5031576;28;19974;-55
2023/02/03 07:18:08;;;;;;;;;;;;;;;4.75;100.00;99191.38;5026946;28;20330;-53
2023/02/03 07:20:33;;;;;;;;;;;;;;;4.72;100.00;99201.47;5028961;28;19929;-59
2023/02/03 07:22:59;;;;;;;;;;;;;;;4.74;100.00;99198.97;5030524;28;20545;-55
2023/02/03 07:25:24;;;;;;;;;;;;;;;4.62;100.00;99202.19;5030332;28;20765;-56
2023/02/03 07:27:50;;;;;;;;;;;;;;;4.79;100.00;99195.66;5029920;28;20494;-58
2023/02/03 07:30:16;;;;;;;;;;;;;;;4.84;100.00;99180.44;5030516;28;19921;-55
2023/02/03 07:32:46;;;;;;;;;;;;;;;4.89;100.00;99209.31;5029836;28;20043;-58
2023/02/03 07:35:11;;;;;;;;;;;;;;;5.03;100.00;99185.78;5028297;28;20197;-56
2023/02/03 07:37:36;;;;;;;;;;;;;;;5.09;100.00;99189.25;5028206;28;19924;-57
2023/02/03 07:40:02;;;;;;;;;;;;;;;5.07;100.00;99168.88;5028431;28;20396;-58
2023/02/03 07:42:27;;;;;;;;;;;;;;;5.07;100.00;99176.50;5026706;28;20375;-55
2023/02/03 07:44:54;;;;;;;;;;;;;;;5.07;100.00;99157.03;5028020;28;20016;-56
2023/02/03 07:47:19;;;;;;;;;;;;;;;5.05;100.00;99152.75;5029549;28;19925;-57
2023/02/03 07:49:45;;;;;;;;;;;;;;;5.29;100.00;99145.41;5063084;28;20573;-56
2023/02/03 07:52:10;;;;;;;;;;;;;;;5.44;100.00;99158.25;5028248;28;20222;-56
2023/02/03 07:54:35;;;;;;;;;;;;;;;5.55;100.00;99140.59;5026929;28;19921;-55
2023/02/03 07:57:01;;;;;;;;;;;;;;;5.50;100.00;99150.72;5027237;28;19924;-56
2023/02/03 07:59:26;;;;;;;;;;;;;;;5.59;100.00;99137.22;5027385;28;20032;-56
2023/02/03 08:01:55;;;;;;;;;;;;;;;5.55;100.00;99122.78;5028106;28;20202;-57
2023/02/03 08:04:21;;;;;;;;;;;;;;;5.53;100.00;99124.44;5029867;28;20321;-55
2023/02/03 08:06:47;;;;;;;;;;;;;;;5.65;100.00;99134.72;5029899;28;19950;-57
2023/02/03 08:09:12;;;;;;;;;;;;;;;5.69;100.00;99126.28;5029761;28;20427;-58
2023/02/03 08:11:37;;;;;;;;;;;;;;;5.68;100.00;99150.03;5029353;28;20055;-56
2023/02/03 08:14:03;;;;;;;;;;;;;;;5.75;100.00;99149.22;5029715;28;19921;-55
2023/02/03 08:16:28;;;;;;;;;;;;;;;5.67;100.00;99144.91;5028862;28;19949;-56
2023/02/03 08:18:54;;;;;;;;;;;;;;;5.63;100.00;99140.66;5029543;28;19924;-55
2023/02/03 08:21:19;;;;;;;;;;;;;;;5.63;100.00;99148.28;5029745;28;19932;-56
2023/02/03 08:23:44;;;;;;;;;;;;;;;5.64;100.00;99142.34;5032976;28;19946;-55
2023/02/03 08:26:10;;;;;;;;;;;;;;;5.60;100.00;99156.72;5031782;28;19997;-60
2023/02/03 08:28:35;;;;;;;;;;;;;;;5.59;100.00;99156.72;5032675;28;19947;-56
2023/02/03 08:31:01;;;;;;;;;;;;;;;5.63;100.00;99156.75;5028942;28;19921;-56
2023/02/03 08:33:27;;;;;;;;;;;;;;;5.67;100.00;99157.63;5027628;28;20017;-58
2023/02/03 08:35:53;;;;;;;;;;;;;;;5.74;100.00;99144.13;5028878;28;19943;-56
2023/02/03 08:38:20;;;;;;;;;;;;;;;5.74;100.00;99129.72;5029274;28;19925;-56
2023/02/03 08:40:46;;;;;;;;;;;;;;;5.80;100.00;99141.63;5028329;28;20238;-57
2023/02/03 08:43:11;;;;;;;;;;;;;;;5.89;100.00;99159.56;5027081;28;19947;-57
2023/02/03 08:45:38;;;;;;;;;;;;;;;5.96;100.00;99143.50;5026328;28;19960;-57
2023/02/03 08:48:03;;;;;;;;;;;;;;;6.06;100.00;99127.47;5028057;28;19944;-55
2023/02/03 08:50:29;;;;;;;;;;;;;;;6.17;100.00;99108.00;5037667;28;19929;-55
2023/02/03 08:52:54;;;;;;;;;;;;;;;6.26;100.00;99089.38;5030640;28;19925;-54
2023/02/03 08:55:20;;;;;;;;;;;;;;;6.32;100.00;99079.25;5029222;28;20337;-56
2023/02/03 08:57:45;;;;;;;;;;;;;;;6.38;100.00;99056.34;5029276;28;20471;-56
2023/02/03 09:00:11;;;;;;;;;;;;;;;6.55;100.00;99074.25;5029473;28;19925;-55
2023/02/03 09:02:37;;;;;;;;;;;;;;;6.57;100.00;99070.03;5027746;28;19925;-55
2023/02/03 09:05:02;;;;;;;;;;;;;;;6.65;100.00;99058.16;5025201;28;19925;-59
2023/02/03 09:07:28;;;;;;;;;;;;;;;6.76;100.00;99059.03;5028020;28;19924;-55
2023/02/03 09:09:53;;;;;;;;;;;;;;;6.81;100.00;99065.00;5028555;28;20020;-56
2023/02/03 09:12:19;;;;;;;;;;;;;;;6.88;100.00;99067.56;5025756;28;19925;-55
2023/02/03 09:14:44;;;;;;;;;;;;;;;6.95;100.00;99060.78;5024166;28;19924;-54
2023/02/03 09:17:09;;;;;;;;;;;;;;;7.01;100.00;99073.53;5026936;28;20380;-55
2023/02/03 09:19:35;;;;;;;;;;;;;;;6.96;100.00;99052.28;5026435;28;19975;-55
2023/02/03 09:22:01;;;;;;;;;;;;;;;7.06;100.00;99040.41;5028623;28;19924;-55
2023/02/03 09:24:27;;;;;;;;;;;;;;;7.07;100.00;99048.06;5028909;28;19928;-56
2023/02/03 09:26:52;;;;;;;;;;;;;;;7.10;100.00;99057.41;5026983;28;20007;-56
2023/02/03 09:29:18;;;;;;;;;;;;;;;7.23;100.00;99039.59;5023261;28;20048;-56
2023/02/03 09:31:45;;;;;;;;;;;;;;;7.37;100.00;99046.41;5026594;28;20262;-57
2023/02/03 09:34:11;;;;;;;;;;;;;;;7.38;100.00;99043.00;5025707;28;20028;-56
2023/02/03 09:36:36;;;;;;;;;;;;;;;7.40;100.00;99028.53;5026565;28;19924;-57
2023/02/03 09:39:02;;;;;;;;;;;;;;;7.42;100.00;99032.81;5026629;28;20011;-54
2023/02/03 09:41:47;;;;;;;;;;;;;;;7.59;100.00;99020.03;5028970;28;20353;-55
2023/02/03 09:44:12;;;;;;;;;;;;;;;7.62;100.00;99037.88;5027441;28;20019;-55
2023/02/03 09:46:50;;;;;;;;;;;;;;;7.66;100.00;99040.44;5024462;28;20359;-58
2023/02/03 09:49:27;;;;;;;;;;;;;;;7.69;100.00;99025.13;5027115;28;19975;-55
2023/02/03 09:51:56;;;;;;;;;;;;;;;7.85;100.00;99009.78;5026378;28;19921;-57
2023/02/03 09:54:24;;;;;;;;;;;;;;;7.84;100.00;98992.78;5024964;28;20269;-56
2023/02/03 09:56:53;;;;;;;;;;;;;;;7.80;100.00;98999.59;5025300;28;19924;-57
2023/02/03 09:59:18;;;;;;;;;;;;;;;7.77;100.00;99007.22;5026897;28;19978;-56
2023/02/03 10:01:59;;;;;;;;;;;;;;;7.85;100.00;99002.13;5029613;28;19924;-56
2023/02/03 10:04:40;;;;;;;;;;;;;;;7.71;100.00;98959.63;5024758;28;20415;-55
2023/02/03 10:07:24;;;;;;;;;;;;;;;7.67;100.00;98986.00;5036143;28;20009;-56
2023/02/03 10:09:51;;;;;;;;;;;;;;;7.74;100.00;98995.34;5034700;28;20111;-55
2023/02/03 10:12:16;;;;;;;;;;;;;;;7.76;100.00;98993.66;5033327;28;19921;-53
2023/02/03 10:14:54;;;;;;;;;;;;;;;7.73;100.00;98997.88;5031509;28;19960;-58
2023/02/03 10:17:24;;;;;;;;;;;;;;;7.76;100.00;98990.25;5031554;28;19921;-57
2023/02/03 10:19:53;;;;;;;;;;;;;;;7.69;100.00;98999.59;5031031;28;20273;-56
2023/02/03 10:22:20;;;;;;;;;;;;;;;7.72;100.00;98984.28;5029857;28;20265;-55
2023/02/03 10:24:52;;;;;;;;;;;;;;;7.75;100.00;98961.31;5031497;28;20272;-57
2023/02/03 10:27:20;;;;;;;;;;;;;;;7.83;100.00;98966.41;5035218;28;19927;-56
2023/02/03 10:29:52;;;;;;;;;;;;;;;7.87;100.00;98965.53;5035481;28;19959;-55
2023/02/03 10:32:17;;;;;;;;;;;;;;;7.97;100.00;98944.25;5033158;28;19921;-59
2023/02/03 10:34:45;;;;;;;;;;;;;;;7.96;100.00;98967.22;5030368;28;19952;-57
2023/02/03 10:37:14;;;;;;;;;;;;;;;8.01;100.00;98953.59;5062596;28;19921;-59
2023/02/03 10:39:39;;;;;;;;;;;;;;;8.09;100.00;98956.09;5030493;28;19924;-58
2023/02/03 10:42:05;;;;;;;;;;;;;;;8.04;100.00;98951.00;5029833;28;19967;-56
2023/02/03 10:44:36;;;;;;;;;;;;;;;8.06;100.00;98941.63;5033967;28;19959;-56
2023/02/03 10:47:17;;;;;;;;;;;;;;;8.11;100.00;98931.41;5032910;28;19927;-56
2023/02/03 10:49:43;;;;;;;;;;;;;;;7.99;100.00;98908.47;5032334;28;19921;-55
2023/02/03 10:52:22;;;;;;;;;;;;;;;8.05;100.00;98906.75;5032306;28;19924;-71
2023/02/03 10:54:48;;;;;;;;;;;;;;;8.01;100.00;98934.88;5034090;28;19921;-57
2023/02/03 10:57:15;;;;;;;;;;;;;;;8.04;100.00;98919.53;5030876;28;19925;-56
2023/02/03 10:59:42;;;;;;;;;;;;;;;7.96;100.00;98853.19;5031670;28;19931;-55
2023/02/03 11:02:09;;;;;;;;;;;;;;;8.00;100.00;98875.28;5032969;28;19921;-54
2023/02/03 11:04:35;;;;;;;;;;;;;;;8.03;100.00;98866.75;5031579;28;19983;-53
2023/02/03 11:07:03;;;;;;;;;;;;;;;8.03;100.00;98870.16;5032243;28;20033;-56
2023/02/03 11:09:38;;;;;;;;;;;;;;;8.09;100.00;98867.59;5031365;28;20054;-55
2023/02/03 11:12:14;;;;;;;;;;;;;;;8.06;100.00;98866.75;5029406;28;20442;-52
2023/02/03 11:14:43;;;;;;;;;;;;;;;8.03;100.00;98865.06;5032759;28;20011;-57
2023/02/03 11:17:17;;;;;;;;;;;;;;;8.07;100.00;98845.44;5031939;28;19920;-54
2023/02/03 11:19:44;;;;;;;;;;;;;;;8.03;100.00;98844.63;5031033;28;20399;-55
2023/02/03 11:22:09;;;;;;;;;;;;;;;7.94;100.00;98893.16;5031891;28;20040;-54
2023/02/03 11:24:39;;;;;;;;;;;;;;;7.76;100.00;98849.88;5048677;28;19917;-53
2023/02/03 11:27:08;;;;;;;;;;;;;;;7.71;100.00;98843.94;5036563;28;19920;-56
2023/02/03 11:29:35;;;;;;;;;;;;;;;7.64;100.00;98845.66;5031187;28;20386;-56
2023/02/03 11:32:21;;;;;;;;;;;;;;;7.52;100.00;98840.59;5027669;28;20439;-57
2023/02/03 11:34:53;;;;;;;;;;;;;;;7.54;100.00;98825.31;5031054;28;19925;-54
2023/02/03 11:37:31;;;;;;;;;;;;;;;7.49;100.00;98825.31;5036126;28;20052;-55
2023/02/03 11:40:06;;;;;;;;;;;;;;;7.52;100.00;98821.91;5041254;28;19921;-54
2023/02/03 11:42:32;;;;;;;;;;;;;;;7.53;100.00;98819.34;5035491;28;19921;-54
2023/02/03 11:45:13;;;;;;;;;;;;;;;7.54;100.00;98813.41;5033548;28;19997;-55
2023/02/03 11:47:43;;;;;;;;;;;;;;;7.54;100.00;98815.94;5032949;28;19964;-55
2023/02/03 11:50:28;;;;;;;;;;;;;;;7.59;100.00;98798.06;5032664;28;20040;-57
2023/02/03 11:53:03;;;;;;;;;;;;;;;7.52;100.00;98778.53;5029001;28;20838;-56
2023/02/03 11:55:37;;;;;;;;;;;;;;;7.55;100.00;98765.78;5033152;28;19920;-58
2023/02/03 11:58:10;;;;;;;;;;;;;;;7.58;100.00;98753.00;5038078;28;20410;-54
2023/02/03 12:00:46;;;;;;;;;;;;;;;7.69;100.00;98738.47;5027802;28;20010;-56
2023/02/03 12:03:38;;;;;;;;;;;;;;;7.74;100.00;98739.28;5032115;28;19935;-55
2023/02/03 12:06:19;;;;;;;;;;;;;;;7.76;100.00;98712.94;5031273;28;19924;-54
2023/02/03 12:08:54;;;;;;;;;;;;;;;7.82;100.00;98730.75;5034659;28;19929;-53
2023/02/03 12:11:26;;;;;;;;;;;;;;;7.84;100.00;98696.72;5038429;28;20034;-54
2023/02/03 12:14:02;;;;;;;;;;;;;;;7.81;100.00;98702.66;5036500;28;20420;-58
2023/02/03 12:16:34;;;;;;;;;;;;;;;7.76;100.00;98729.94;5041277;28;19977;-53
2023/02/03 12:19:08;;;;;;;;;;;;;;;7.74;100.00;98685.72;5036807;28;19920;-58
2023/02/03 12:21:42;;;;;;;;;;;;;;;7.82;100.00;98660.97;5035319;28;19932;-56
2023/02/03 12:24:08;;;;;;;;;;;;;;;7.81;100.00;98646.53;5029189;28;19920;-53
2023/02/03 12:26:42;;;;;;;;;;;;;;;7.81;100.00;98642.25;5030058;28;19931;-58
2023/02/03 12:29:20;;;;;;;;;;;;;;;7.81;100.00;98621.00;5032273;28;19921;-59
2023/02/03 12:31:59;;;;;;;;;;;;;;;7.83;100.00;98637.16;5034523;28;19921;-55
2023/02/03 12:34:24;;;;;;;;;;;;;;;7.74;100.00;98611.72;5033416;28;19932;-61
2023/02/03 12:37:00;;;;;;;;;;;;;;;7.73;100.00;98627.88;5032542;28;20541;-54
2023/02/03 12:39:44;;;;;;;;;;;;;;;7.74;100.00;98606.59;5031364;28;19925;-53
2023/02/03 12:42:14;;;;;;;;;;;;;;;7.74;100.00;98593.84;5030161;28;19920;-53
2023/02/03 12:44:49;;;;;;;;;;;;;;;7.74;100.00;98594.69;5031751;28;19921;-54
2023/02/03 12:47:20;;;;;;;;;;;;;;;7.72;100.00;98576.00;5029973;28;19920;-57
2023/02/03 12:49:50;;;;;;;;;;;;;;;7.74;100.00;98592.16;5030893;28;20019;-59
2023/02/03 12:52:22;;;;;;;;;;;;;;;7.69;100.00;98565.81;5030785;28;20011;-56
2023/02/03 12:54:50;;;;;;;;;;;;;;;7.65;100.00;98571.81;5030497;28;20023;-55